Time;durP1;ratioP1;P1;durP2;ratioP2;P2;SDS_P1;SDS_P2;PMS_P1;PMS_P2;Temp;Humidity;BMP_temperature;BMP_pressure;BME280_temperature;BME280_humidity;BME280_pressure;Samples;Min_cycle;Max_cycle;Signal;HPM_P1;HPM_P2
2023/03/25 00:01:18;;;;;;;3.75;1.45;;;9.70;72.50;;;;;;5065521;28;20322;-69
2023/03/25 00:03:49;;;;;;;2.20;1.20;;;9.70;71.90;;;;;;5071111;28;20528;-69
2023/03/25 00:06:16;;;;;;;2.85;1.08;;;9.70;72.40;;;;;;5068937;28;20190;-69
2023/03/25 00:08:43;;;;;;;3.13;1.25;;;9.70;72.60;;;;;;5070499;28;20691;-69
2023/03/25 00:11:12;;;;;;;5.28;1.38;;;9.70;72.60;;;;;;5069269;28;20189;-70
2023/03/25 00:13:41;;;;;;;3.25;1.08;;;9.70;72.10;;;;;;5070672;28;20190;-70
2023/03/25 00:16:09;;;;;;;3.33;1.60;;;9.70;72.00;;;;;;5069222;28;20190;-70
2023/03/25 00:18:36;;;;;;;2.30;1.00;;;9.70;71.90;;;;;;5070470;28;20668;-69
2023/03/25 00:21:06;;;;;;;7.63;1.83;;;9.70;71.30;;;;;;5069780;28;20196;-69
2023/03/25 00:23:33;;;;;;;3.42;1.20;;;9.70;71.30;;;;;;5069912;28;20194;-70
2023/03/25 00:26:02;;;;;;;2.53;1.08;;;9.70;71.10;;;;;;5069478;28;20185;-69
2023/03/25 00:28:34;;;;;;;3.25;1.02;;;9.60;70.90;;;;;;5071051;28;20272;-69
2023/03/25 00:31:04;;;;;;;3.58;1.45;;;9.60;71.20;;;;;;5069576;28;20182;-71
2023/03/25 00:33:34;;;;;;;2.50;0.80;;;9.70;70.90;;;;;;5070298;28;20530;-70
2023/03/25 00:36:04;;;;;;;2.95;1.50;;;9.70;70.70;;;;;;5069980;28;20204;-69
2023/03/25 00:38:34;;;;;;;3.25;1.15;;;9.60;71.60;;;;;;5071352;28;20189;-69
2023/03/25 00:41:21;;;;;;;6.85;1.40;;;9.60;70.90;;;;;;5070733;28;20200;-69
2023/03/25 00:43:52;;;;;;;5.80;1.00;;;9.60;71.10;;;;;;5071793;28;20199;-69
2023/03/25 00:46:21;;;;;;;6.50;1.15;;;9.60;71.00;;;;;;5071054;28;20190;-69
2023/03/25 00:48:49;;;;;;;5.35;1.10;;;9.60;70.60;;;;;;5071882;28;20591;-69
2023/03/25 00:51:20;;;;;;;2.60;1.33;;;9.60;69.70;;;;;;5070782;28;20666;-69
2023/03/25 00:53:48;;;;;;;4.55;1.05;;;9.70;70.20;;;;;;5071962;28;20209;-69
2023/03/25 00:56:15;;;;;;;3.85;1.02;;;9.70;69.90;;;;;;5070515;28;20199;-69
2023/03/25 00:58:42;;;;;;;2.30;0.90;;;9.70;69.70;;;;;;5071971;28;20198;-69
2023/03/25 01:01:14;;;;;;;3.20;0.90;;;9.80;70.10;;;;;;5070978;28;20194;-72
2023/03/25 01:03:43;;;;;;;3.38;0.80;;;9.90;69.50;;;;;;5071798;28;20237;-70
2023/03/25 01:06:11;;;;;;;2.72;1.00;;;9.90;69.10;;;;;;5071160;28;20185;-69
2023/03/25 01:08:39;;;;;;;2.40;1.10;;;10.00;66.60;;;;;;5071399;28;20266;-69
2023/03/25 01:11:08;;;;;;;3.75;1.20;;;10.10;66.70;;;;;;5070615;28;20272;-69
2023/03/25 01:13:35;;;;;;;2.70;1.10;;;10.20;66.90;;;;;;5071814;28;20193;-69
2023/03/25 01:16:09;;;;;;;2.50;1.20;;;10.20;66.80;;;;;;5069700;28;20186;-69
2023/03/25 01:18:37;;;;;;;2.10;0.85;;;10.30;66.70;;;;;;5073178;28;20194;-69
2023/03/25 01:21:06;;;;;;;2.90;1.40;;;10.40;66.70;;;;;;5074552;28;20181;-69
2023/03/25 01:23:33;;;;;;;2.85;0.90;;;10.40;68.00;;;;;;5075301;28;20217;-69
2023/03/25 01:26:01;;;;;;;3.97;1.08;;;10.40;67.70;;;;;;5074448;28;20251;-69
2023/03/25 01:28:29;;;;;;;2.65;1.42;;;10.50;68.30;;;;;;5075269;28;20205;-69
2023/03/25 01:31:01;;;;;;;2.88;1.30;;;10.60;68.10;;;;;;5074661;28;20190;-70
2023/03/25 01:33:28;;;;;;;2.45;1.00;;;10.60;68.00;;;;;;5075378;28;20194;-69
2023/03/25 01:35:57;;;;;;;2.67;1.05;;;10.60;68.00;;;;;;5074186;28;20217;-69
2023/03/25 01:38:25;;;;;;;2.05;1.05;;;10.60;68.30;;;;;;5074859;28;20190;-69
2023/03/25 01:40:53;;;;;;;5.18;1.20;;;10.50;68.40;;;;;;5074088;28;20186;-70
2023/03/25 01:43:20;;;;;;;4.80;1.73;;;10.50;68.30;;;;;;5074992;28;20346;-69
2023/03/25 01:45:51;;;;;;;2.90;1.15;;;10.40;68.70;;;;;;5074035;28;20181;-69
2023/03/25 01:48:22;;;;;;;3.17;1.42;;;10.40;69.20;;;;;;5075060;28;20247;-69
2023/03/25 01:50:56;;;;;;;1.95;0.93;;;10.30;69.10;;;;;;5073564;28;20182;-69
2023/03/25 01:53:29;;;;;;;2.03;1.13;;;10.30;69.20;;;;;;5074789;28;20252;-69
2023/03/25 01:55:56;;;;;;;6.25;1.20;;;10.30;69.40;;;;;;5073911;28;20272;-70
2023/03/25 01:58:26;;;;;;;4.78;1.38;;;10.40;69.60;;;;;;5074676;28;20194;-69
2023/03/25 02:00:56;;;;;;;3.30;1.00;;;10.30;70.20;;;;;;5073940;28;20186;-69
2023/03/25 02:03:25;;;;;;;2.45;1.10;;;10.30;70.10;;;;;;5074634;28;20275;-69
2023/03/25 02:05:58;;;;;;;2.92;1.20;;;10.40;68.60;;;;;;5073484;28;20232;-69
2023/03/25 02:08:27;;;;;;;2.38;0.80;;;10.40;69.10;;;;;;5074699;28;20221;-70
2023/03/25 02:10:55;;;;;;;1.90;1.05;;;10.30;69.90;;;;;;5073472;28;20189;-69
2023/03/25 02:13:22;;;;;;;4.50;0.90;;;10.40;69.40;;;;;;5074190;28;20201;-70
2023/03/25 02:16:22;;;;;;;3.67;1.63;;;10.30;67.70;;;;;;5072422;28;20616;-69
2023/03/25 02:18:59;;;;;;;1.92;0.88;;;10.20;67.40;;;;;;5074278;28;20197;-69
2023/03/25 02:21:51;;;;;;;2.45;1.15;;;10.20;66.90;;;;;;5073626;28;20190;-71
2023/03/25 02:25:03;;;;;;;4.60;0.98;;;10.10;66.70;;;;;;5072859;28;20239;-69
2023/03/25 02:27:53;;;;;;;3.10;0.95;;;10.00;66.60;;;;;;5074518;28;20519;-69
2023/03/25 02:30:38;;;;;;;2.97;1.10;;;9.90;67.60;;;;;;5071358;28;20656;-69
2023/03/25 02:33:32;;;;;;;2.60;1.17;;;9.90;68.20;;;;;;5072936;28;20190;-69
2023/03/25 02:36:47;;;;;;;3.17;1.00;;;9.90;68.30;;;;;;5073988;28;20186;-69
2023/03/25 02:39:24;;;;;;;4.90;0.90;;;9.80;68.10;;;;;;5073188;28;20591;-69
2023/03/25 02:41:56;;;;;;;2.13;0.90;;;9.80;67.50;;;;;;5072681;28;20273;-69
2023/03/25 02:44:32;;;;;;;1.90;0.70;;;9.80;67.70;;;;;;5073745;28;20233;-69
2023/03/25 02:47:04;;;;;;;2.65;0.93;;;9.70;67.60;;;;;;5073554;28;20188;-69
2023/03/25 02:49:36;;;;;;;1.92;0.73;;;9.70;68.00;;;;;;5073801;28;20194;-70
2023/03/25 02:52:09;;;;;;;2.05;0.80;;;9.60;68.20;;;;;;5072885;28;20190;-69
2023/03/25 02:54:40;;;;;;;2.53;0.90;;;9.60;68.60;;;;;;5073655;28;20598;-70
2023/03/25 02:57:09;;;;;;;1.95;0.90;;;9.50;68.80;;;;;;5072148;28;20540;-69
2023/03/25 02:59:38;;;;;;;2.60;0.60;;;9.50;68.80;;;;;;5072400;28;20204;-69
2023/03/25 03:02:10;;;;;;;2.38;0.80;;;9.50;68.70;;;;;;5073156;28;20213;-70
2023/03/25 03:04:49;;;;;;;1.70;0.60;;;9.50;68.50;;;;;;5072424;28;20193;-69
2023/03/25 03:07:23;;;;;;;5.40;0.80;;;9.50;67.90;;;;;;5073323;28;20223;-70
2023/03/25 03:10:04;;;;;;;2.97;0.85;;;9.40;67.90;;;;;;5071949;28;20185;-69
2023/03/25 03:12:45;;;;;;;2.85;1.40;;;9.40;67.50;;;;;;5073511;28;20190;-69
2023/03/25 03:15:24;;;;;;;2.30;0.90;;;9.40;67.50;;;;;;5072244;28;20190;-69
2023/03/25 03:18:06;;;;;;;4.32;1.13;;;9.30;67.30;;;;;;5073190;28;20204;-69
2023/03/25 03:20:44;;;;;;;3.33;1.33;;;9.30;66.50;;;;;;5072402;28;20670;-70
2023/03/25 03:23:19;;;;;;;1.75;0.80;;;9.30;66.20;;;;;;5072667;28;20216;-71
2023/03/25 03:25:53;;;;;;;4.32;0.70;;;9.20;66.40;;;;;;5072418;28;20174;-69
2023/03/25 03:28:30;;;;;;;6.25;0.90;;;9.20;66.60;;;;;;5073154;28;20221;-69
2023/03/25 03:31:05;;;;;;;1.90;0.82;;;9.20;66.50;;;;;;5072032;28;20186;-69
2023/03/25 03:33:45;;;;;;;2.88;0.90;;;9.20;67.00;;;;;;5073058;28;20596;-69
2023/03/25 03:36:16;;;;;;;2.75;0.85;;;9.10;66.90;;;;;;5071327;28;20193;-69
2023/03/25 03:38:48;;;;;;;2.00;0.82;;;9.10;67.10;;;;;;5072555;28;20203;-69
2023/03/25 03:41:21;;;;;;;2.08;0.90;;;9.10;67.70;;;;;;5071159;28;20539;-69
2023/03/25 03:43:56;;;;;;;2.42;0.90;;;9.00;67.70;;;;;;5072598;28;20214;-69
2023/03/25 03:46:27;;;;;;;3.25;0.80;;;8.90;68.50;;;;;;5069914;28;20220;-70
2023/03/25 03:48:57;;;;;;;3.45;1.20;;;8.90;68.50;;;;;;5055373;28;20649;-69
2023/03/25 03:51:29;;;;;;;2.20;0.70;;;8.90;68.60;;;;;;5065311;28;20235;-69
2023/03/25 03:53:59;;;;;;;4.05;1.10;;;8.80;69.00;;;;;;5072543;28;20193;-69
2023/03/25 03:56:35;;;;;;;2.45;0.90;;;8.80;69.40;;;;;;5071371;28;20195;-69
2023/03/25 03:59:08;;;;;;;2.97;0.90;;;8.80;69.50;;;;;;5072071;28;20577;-69
2023/03/25 04:01:44;;;;;;;3.88;0.77;;;8.80;69.80;;;;;;5072474;28;20190;-69
2023/03/25 04:04:15;;;;;;;4.00;0.90;;;8.80;70.10;;;;;;5070647;28;20209;-72
2023/03/25 04:06:49;;;;;;;2.78;0.80;;;8.80;70.10;;;;;;5052112;28;20614;-69
2023/03/25 04:09:26;;;;;;;3.03;1.00;;;8.80;70.30;;;;;;5057696;28;20189;-69
2023/03/25 04:12:00;;;;;;;3.55;1.10;;;8.80;70.50;;;;;;5072060;28;20213;-69
2023/03/25 04:14:27;;;;;;;3.05;0.70;;;8.80;69.90;;;;;;5071982;28;20192;-69
2023/03/25 04:16:55;;;;;;;2.25;0.80;;;8.80;70.20;;;;;;5072392;28;20205;-69
2023/03/25 04:19:24;;;;;;;1.50;0.60;;;8.70;70.00;;;;;;5069745;28;20743;-69
2023/03/25 04:21:54;;;;;;;1.85;0.90;;;8.70;70.10;;;;;;5072164;28;20702;-69
2023/03/25 04:24:22;;;;;;;2.10;0.75;;;8.70;69.70;;;;;;5070946;28;20221;-70
2023/03/25 04:26:51;;;;;;;3.25;0.90;;;8.70;70.10;;;;;;5072078;28;20200;-69
2023/03/25 04:29:21;;;;;;;2.30;0.82;;;8.80;69.40;;;;;;5070817;28;20217;-69
2023/03/25 04:31:49;;;;;;;4.40;0.98;;;8.70;68.80;;;;;;5072042;28;20191;-68
2023/03/25 04:34:19;;;;;;;5.22;1.40;;;8.70;68.70;;;;;;5070685;28;20545;-69
2023/03/25 04:36:48;;;;;;;1.63;0.57;;;8.60;68.70;;;;;;5072010;28;20192;-69
2023/03/25 04:39:21;;;;;;;2.20;0.80;;;8.60;67.50;;;;;;5071314;28;20220;-69
2023/03/25 04:41:52;;;;;;;1.70;0.80;;;8.60;67.50;;;;;;5072083;28;20578;-69
2023/03/25 04:44:22;;;;;;;1.70;0.70;;;8.60;67.20;;;;;;5071496;28;20564;-69
2023/03/25 04:46:52;;;;;;;2.70;0.80;;;8.60;66.00;;;;;;5071999;28;20280;-69
2023/03/25 04:49:23;;;;;;;2.40;0.70;;;8.70;65.90;;;;;;5070701;28;20182;-69
2023/03/25 04:51:53;;;;;;;3.45;0.80;;;8.70;65.80;;;;;;5071838;28;20243;-70
2023/03/25 04:54:22;;;;;;;1.80;0.80;;;8.70;66.00;;;;;;5073445;28;20189;-69
2023/03/25 04:56:49;;;;;;;4.25;0.80;;;8.70;66.20;;;;;;5075950;28;20190;-69
2023/03/25 04:59:17;;;;;;;2.55;0.85;;;8.70;66.30;;;;;;5074819;28;20181;-69
2023/03/25 05:01:46;;;;;;;3.17;0.88;;;8.70;66.70;;;;;;5075672;28;20236;-69
2023/03/25 05:04:16;;;;;;;3.97;0.80;;;8.70;67.10;;;;;;5075117;28;20579;-69
2023/03/25 05:06:45;;;;;;;2.28;0.80;;;8.70;66.90;;;;;;5075500;28;20539;-70
2023/03/25 05:09:15;;;;;;;4.15;1.08;;;8.60;67.40;;;;;;5074332;28;20668;-71
2023/03/25 05:11:43;;;;;;;2.80;0.75;;;8.60;67.80;;;;;;5073179;28;20251;-69
2023/03/25 05:14:12;;;;;;;2.50;0.70;;;8.60;67.80;;;;;;5075360;28;20201;-69
2023/03/25 05:16:39;;;;;;;2.70;0.70;;;8.60;67.50;;;;;;5074061;28;20181;-69
2023/03/25 05:19:08;;;;;;;1.58;0.60;;;8.60;67.30;;;;;;5074989;28;20247;-70
2023/03/25 05:21:36;;;;;;;2.35;0.70;;;8.60;67.70;;;;;;5074074;28;20197;-69
2023/03/25 05:24:07;;;;;;;2.50;0.90;;;8.60;68.30;;;;;;5073487;28;20244;-69
2023/03/25 05:26:34;;;;;;;2.85;0.80;;;8.70;68.70;;;;;;5075578;28;20544;-69
2023/03/25 05:29:02;;;;;;;2.40;0.80;;;8.80;70.20;;;;;;5074583;28;20205;-69
2023/03/25 05:31:30;;;;;;;3.63;1.00;;;8.90;70.80;;;;;;5075265;28;20197;-69
2023/03/25 05:33:57;;;;;;;2.55;0.80;;;9.00;71.00;;;;;;5074180;28;20913;-69
2023/03/25 05:36:26;;;;;;;4.95;0.90;;;9.10;71.40;;;;;;5075147;28;20190;-69
2023/03/25 05:38:54;;;;;;;1.60;0.60;;;9.10;72.40;;;;;;5073847;28;20687;-69
2023/03/25 05:41:31;;;;;;;5.85;0.95;;;9.20;73.00;;;;;;5074859;28;20221;-69
2023/03/25 05:43:59;;;;;;;2.33;0.93;;;9.20;74.00;;;;;;5074174;28;20744;-69
2023/03/25 05:46:29;;;;;;;1.70;0.70;;;9.20;73.50;;;;;;5075049;28;20190;-69
2023/03/25 05:48:59;;;;;;;2.60;0.65;;;9.30;72.50;;;;;;5074075;28;20186;-69
2023/03/25 05:51:32;;;;;;;1.60;0.60;;;9.30;72.00;;;;;;5071091;28;20280;-69
2023/03/25 05:54:00;;;;;;;1.83;0.75;;;9.30;71.30;;;;;;5073960;28;20312;-68
2023/03/25 05:56:27;;;;;;;2.58;0.93;;;9.40;71.00;;;;;;5074254;28;20200;-68
2023/03/25 05:58:55;;;;;;;1.50;0.60;;;9.50;70.80;;;;;;5074346;28;20217;-68
2023/03/25 06:01:22;;;;;;;1.92;0.70;;;9.50;70.10;;;;;;5074449;28;20190;-69
2023/03/25 06:03:50;;;;;;;1.92;0.90;;;9.50;69.20;;;;;;5074269;28;20263;-68
2023/03/25 06:06:18;;;;;;;2.22;0.70;;;9.50;67.70;;;;;;5073732;28;20193;-68
2023/03/25 06:08:50;;;;;;;2.80;0.70;;;9.50;66.70;;;;;;5073335;28;20647;-69
2023/03/25 06:11:18;;;;;;;3.50;0.80;;;9.40;66.40;;;;;;5074675;28;20190;-68
2023/03/25 06:13:48;;;;;;;2.05;0.70;;;9.30;66.10;;;;;;5073222;28;20201;-69
2023/03/25 06:16:18;;;;;;;2.30;0.75;;;9.20;66.10;;;;;;5074467;28;20225;-68
2023/03/25 06:18:49;;;;;;;1.88;0.73;;;9.10;66.80;;;;;;5073500;28;20213;-68
2023/03/25 06:21:18;;;;;;;2.13;0.80;;;9.00;67.20;;;;;;5074255;28;20233;-68
2023/03/25 06:23:48;;;;;;;1.60;0.60;;;8.90;66.70;;;;;;5073358;28;20710;-68
2023/03/25 06:26:16;;;;;;;1.80;0.63;;;8.90;67.50;;;;;;5074228;28;20201;-69
2023/03/25 06:28:43;;;;;;;1.85;0.90;;;8.80;67.40;;;;;;5073104;28;20196;-68
2023/03/25 06:31:15;;;;;;;2.00;0.82;;;8.80;67.80;;;;;;5073892;28;20197;-69
2023/03/25 06:33:43;;;;;;;2.00;0.90;;;8.70;67.50;;;;;;5072786;28;20193;-69
2023/03/25 06:36:17;;;;;;;1.60;0.70;;;8.60;67.90;;;;;;5071782;28;20182;-71
2023/03/25 06:38:45;;;;;;;1.60;0.70;;;8.60;68.30;;;;;;5072160;28;20292;-69
2023/03/25 06:41:16;;;;;;;1.58;0.63;;;8.50;67.90;;;;;;5073775;28;20225;-69
2023/03/25 06:43:43;;;;;;;1.60;0.80;;;8.50;68.60;;;;;;5072637;28;20260;-75
2023/03/25 06:46:10;;;;;;;1.73;0.65;;;8.50;68.10;;;;;;5073364;28;20193;-69
2023/03/25 06:48:38;;;;;;;1.75;0.80;;;8.50;68.40;;;;;;5072675;28;20204;-68
2023/03/25 06:51:05;;;;;;;1.60;0.65;;;8.50;69.00;;;;;;5073626;28;20615;-69
2023/03/25 06:53:34;;;;;;;1.50;0.60;;;8.50;68.70;;;;;;5072549;28;20654;-69
2023/03/25 06:56:02;;;;;;;4.63;0.80;;;8.40;69.40;;;;;;5072831;28;20193;-70
2023/03/25 06:58:34;;;;;;;1.55;0.70;;;8.50;69.60;;;;;;5072731;28;20185;-69
2023/03/25 07:01:05;;;;;;;1.60;0.70;;;8.50;69.80;;;;;;5073665;28;20190;-69
2023/03/25 07:03:33;;;;;;;1.60;0.70;;;8.60;70.20;;;;;;5071689;28;20218;-70
2023/03/25 07:06:00;;;;;;;1.50;0.60;;;8.70;69.80;;;;;;5073055;28;20205;-69
2023/03/25 07:08:28;;;;;;;1.60;0.70;;;8.90;70.00;;;;;;5071920;28;20217;-69
2023/03/25 07:11:01;;;;;;;1.70;0.75;;;9.00;69.90;;;;;;5073255;28;20197;-69
2023/03/25 07:13:29;;;;;;;1.70;0.60;;;9.10;68.40;;;;;;5071566;28;20189;-69
2023/03/25 07:15:58;;;;;;;1.90;0.82;;;9.20;67.70;;;;;;5072749;28;20269;-69
2023/03/25 07:18:28;;;;;;;2.45;1.30;;;9.30;67.30;;;;;;5072585;28;20195;-69
2023/03/25 07:20:55;;;;;;;2.00;0.90;;;9.40;67.00;;;;;;5072227;28;20276;-72
2023/03/25 07:23:23;;;;;;;2.20;0.80;;;9.50;65.60;;;;;;5072668;28;20263;-69
2023/03/25 07:25:50;;;;;;;3.13;0.80;;;9.70;64.50;;;;;;5072383;28;20193;-69
2023/03/25 07:28:17;;;;;;;1.60;0.60;;;9.80;63.80;;;;;;5072891;28;20276;-71
2023/03/25 07:30:45;;;;;;;4.57;0.70;;;9.90;63.20;;;;;;5071997;28;20186;-69
2023/03/25 07:33:15;;;;;;;1.60;0.70;;;9.90;62.30;;;;;;5072944;28;20699;-69
2023/03/25 07:35:42;;;;;;;1.90;0.80;;;9.90;61.90;;;;;;5071078;28;20213;-70
2023/03/25 07:38:10;;;;;;;3.65;1.10;;;10.30;60.70;;;;;;5071053;28;20189;-69
2023/03/25 07:40:37;;;;;;;1.70;0.70;;;12.90;58.30;;;;;;5072717;28;20252;-70
2023/03/25 07:43:05;;;;;;;1.60;0.70;;;17.50;51.40;;;;;;5071895;28;20217;-70
2023/03/25 07:45:32;;;;;;;2.90;0.90;;;21.90;41.30;;;;;;5071555;28;20541;-71
2023/03/25 07:48:01;;;;;;;2.60;1.20;;;24.20;32.00;;;;;;5067128;28;20469;-71
2023/03/25 07:50:30;;;;;;;2.83;1.30;;;23.10;30.00;;;;;;5052676;28;20433;-70
2023/03/25 07:52:57;;;;;;;1.97;1.10;;;21.50;31.20;;;;;;5072591;28;20877;-71
2023/03/25 07:55:24;;;;;;;1.50;0.50;;;20.40;32.40;;;;;;5071470;28;20524;-71
2023/03/25 07:57:57;;;;;;;1.77;0.50;;;21.00;34.00;;;;;;5072560;28;20451;-70
2023/03/25 08:00:24;;;;;;;2.10;0.60;;;24.00;30.70;;;;;;5071347;28;20479;-71
2023/03/25 08:02:52;;;;;;;1.80;0.50;;;26.80;27.60;;;;;;5072542;28;20439;-71
2023/03/25 08:05:21;;;;;;;3.50;0.50;;;28.10;24.60;;;;;;5072222;28;20889;-71
2023/03/25 08:07:50;;;;;;;3.30;0.70;;;25.90;25.10;;;;;;5071742;28;20500;-71
2023/03/25 08:10:18;;;;;;;1.70;0.60;;;23.40;27.40;;;;;;5068335;28;20440;-70
2023/03/25 08:12:51;;;;;;;2.50;0.87;;;22.20;30.00;;;;;;5070564;28;20485;-71
2023/03/25 08:15:19;;;;;;;2.30;0.80;;;23.00;29.60;;;;;;5065465;28;20431;-70
2023/03/25 08:17:47;;;;;;;1.70;0.50;;;23.60;28.70;;;;;;5070490;28;20466;-71
2023/03/25 08:20:14;;;;;;;5.90;3.47;;;23.90;28.00;;;;;;5069348;28;20471;-71
2023/03/25 08:22:44;;;;;;;4.90;2.97;;;23.10;27.90;;;;;;5069476;28;20468;-71
2023/03/25 08:25:13;;;;;;;2.30;1.10;;;22.70;29.70;;;;;;5069150;28;20479;-71
2023/03/25 08:27:40;;;;;;;2.80;0.70;;;23.90;29.50;;;;;;5070126;28;20527;-71
2023/03/25 08:30:10;;;;;;;2.10;0.87;;;24.40;27.90;;;;;;5068871;28;20459;-71
2023/03/25 08:32:39;;;;;;;1.70;0.60;;;23.80;27.60;;;;;;5065858;28;20440;-71
2023/03/25 08:35:07;;;;;;;1.60;0.50;;;23.00;28.40;;;;;;5068131;28;20984;-71
2023/03/25 08:37:36;;;;;;;2.37;1.47;;;23.40;28.50;;;;;;5069812;28;20436;-71
2023/03/25 08:40:07;;;;;;;1.63;0.50;;;23.00;27.90;;;;;;5068694;28;20842;-70
2023/03/25 08:42:36;;;;;;;2.43;0.77;;;22.70;28.50;;;;;;5070695;28;20471;-71
2023/03/25 08:45:04;;;;;;;1.70;0.70;;;23.60;28.20;;;;;;5070821;28;20562;-71
2023/03/25 08:47:31;;;;;;;1.70;0.60;;;23.90;28.00;;;;;;5070335;28;20547;-71
2023/03/25 08:49:58;;;;;;;1.80;0.60;;;24.10;27.60;;;;;;5070813;28;20472;-71
2023/03/25 08:52:25;;;;;;;1.70;0.60;;;24.20;27.00;;;;;;5070757;28;20472;-71
2023/03/25 08:54:52;;;;;;;1.60;0.50;;;24.50;26.40;;;;;;5070697;28;20526;-71
2023/03/25 08:57:24;;;;;;;1.90;0.60;;;25.20;25.80;;;;;;5069030;28;20515;-71
2023/03/25 08:59:52;;;;;;;1.93;0.60;;;25.50;25.50;;;;;;5070400;28;20443;-71
2023/03/25 09:02:19;;;;;;;2.20;0.50;;;26.00;25.10;;;;;;5066758;28;20527;-71
2023/03/25 09:04:48;;;;;;;2.03;0.67;;;25.50;23.70;;;;;;5067911;28;20476;-71
2023/03/25 09:07:22;;;;;;;2.03;0.60;;;25.10;25.40;;;;;;5065295;28;20491;-71
2023/03/25 09:09:49;;;;;;;2.07;0.93;;;24.60;25.00;;;;;;5068487;28;20448;-71
2023/03/25 09:12:16;;;;;;;3.53;1.00;;;24.00;25.60;;;;;;5068582;28;20467;-71
2023/03/25 09:14:44;;;;;;;3.93;1.90;;;24.10;26.50;;;;;;5067425;28;20468;-74
2023/03/25 09:17:12;;;;;;;2.37;0.97;;;24.60;25.20;;;;;;5069276;28;20455;-71
2023/03/25 09:19:39;;;;;;;1.90;0.60;;;23.90;25.20;;;;;;5067923;28;20467;-71
2023/03/25 09:22:07;;;;;;;2.53;0.70;;;22.90;25.90;;;;;;5069090;28;20938;-72
2023/03/25 09:24:34;;;;;;;2.63;0.87;;;22.00;26.80;;;;;;5063807;28;20475;-73
2023/03/25 09:27:02;;;;;;;1.83;0.60;;;21.00;27.90;;;;;;5069562;28;20438;-71
2023/03/25 09:29:30;;;;;;;2.20;0.60;;;20.30;28.60;;;;;;5068500;28;21437;-70
2023/03/25 09:31:58;;;;;;;1.77;0.70;;;19.90;29.60;;;;;;5069174;28;20965;-72
2023/03/25 09:34:27;;;;;;;2.30;0.80;;;20.10;29.80;;;;;;5068336;28;20536;-70
2023/03/25 09:36:54;;;;;;;5.27;0.90;;;19.80;29.80;;;;;;5067333;28;20478;-70
2023/03/25 09:39:21;;;;;;;5.00;0.90;;;19.40;30.50;;;;;;5068691;28;20835;-70
2023/03/25 09:42:03;;;;;;;2.43;0.83;;;19.50;30.40;;;;;;5071634;28;20608;-70
2023/03/25 09:44:34;;;;;;;5.43;0.90;;;19.50;30.00;;;;;;5072657;28;20985;-75
2023/03/25 09:47:03;;;;;;;3.80;1.17;;;19.20;30.90;;;;;;5072017;28;20490;-70
2023/03/25 09:49:37;;;;;;;4.70;0.80;;;19.00;31.30;;;;;;5071245;28;20460;-70
2023/03/25 09:52:10;;;;;;;2.80;1.33;;;18.70;30.20;;;;;;5071879;28;20435;-71
2023/03/25 09:54:44;;;;;;;3.73;1.63;;;18.10;30.40;;;;;;5060572;28;20475;-71
2023/03/25 09:57:20;;;;;;;2.90;1.30;;;17.70;30.30;;;;;;5071732;28;20468;-70
2023/03/25 09:59:50;;;;;;;2.20;1.10;;;17.10;31.00;;;;;;5069009;28;20451;-70
2023/03/25 10:02:32;;;;;;;3.10;1.00;;;16.70;31.70;;;;;;5069879;28;20527;-70
2023/03/25 10:05:25;;;;;;;3.00;0.93;;;16.50;32.90;;;;;;5068399;28;20885;-70
2023/03/25 10:08:06;;;;;;;1.80;0.70;;;16.70;33.40;;;;;;5059995;28;20541;-72
2023/03/25 10:10:40;;;;;;;1.83;1.10;;;16.90;33.60;;;;;;5070008;28;21002;-71
2023/03/25 10:13:14;;;;;;;4.13;1.10;;;18.00;33.70;;;;;;5067622;28;20444;-71
2023/03/25 10:15:51;;;;;;;2.57;0.97;;;20.00;30.80;;;;;;5069437;28;20487;-71
2023/03/25 10:18:43;;;;;;;1.80;0.60;;;20.40;28.40;;;;;;5068588;28;20436;-70
2023/03/25 10:21:19;;;;;;;3.00;0.80;;;21.50;28.90;;;;;;5067576;28;20501;-70
2023/03/25 10:23:55;;;;;;;1.83;0.80;;;22.80;25.90;;;;;;5068906;28;20493;-72
2023/03/25 10:26:28;;;;;;;2.77;0.90;;;22.70;25.20;;;;;;5069075;28;20483;-70
2023/03/25 10:29:01;;;;;;;2.93;0.90;;;22.10;25.60;;;;;;5072602;28;20475;-70
2023/03/25 10:31:34;;;;;;;1.97;0.73;;;21.40;26.40;;;;;;5068959;28;20444;-70
2023/03/25 10:34:06;;;;;;;2.40;1.60;;;21.40;27.00;;;;;;5072346;28;20443;-70
2023/03/25 10:36:40;;;;;;;2.87;0.90;;;21.30;26.80;;;;;;5073177;28;20476;-72
2023/03/25 10:39:13;;;;;;;1.70;0.70;;;21.00;26.20;;;;;;5073230;28;20953;-71
2023/03/25 10:41:42;;;;;;;1.90;0.90;;;20.40;26.70;;;;;;5074154;28;20843;-71
2023/03/25 10:44:10;;;;;;;2.17;0.70;;;20.00;27.30;;;;;;5073829;28;20445;-71
2023/03/25 10:46:46;;;;;;;2.53;0.77;;;19.50;27.70;;;;;;5074226;28;20433;-70
2023/03/25 10:49:17;;;;;;;2.17;0.60;;;19.20;28.20;;;;;;5073811;28;20520;-70
2023/03/25 10:51:47;;;;;;;2.30;1.00;;;19.20;28.80;;;;;;5073716;28;20518;-70
2023/03/25 10:54:18;;;;;;;2.70;0.70;;;19.30;29.10;;;;;;5073918;28;20949;-71
2023/03/25 10:56:48;;;;;;;2.30;0.90;;;22.00;29.80;;;;;;5074279;28;20440;-71
2023/03/25 10:59:21;;;;;;;1.83;0.70;;;26.70;24.60;;;;;;5073701;28;20491;-70
2023/03/25 11:01:49;;;;;;;2.90;0.60;;;27.80;21.80;;;;;;5074121;28;20479;-72
2023/03/25 11:04:18;;;;;;;1.60;0.53;;;27.60;21.50;;;;;;5073587;28;20799;-71
2023/03/25 11:06:52;;;;;;;1.93;0.70;;;29.00;21.20;;;;;;5073333;28;20444;-73
2023/03/25 11:09:25;;;;;;;1.97;0.67;;;30.70;19.20;;;;;;5073595;28;20454;-71
2023/03/25 11:11:53;;;;;;;1.90;0.60;;;30.00;18.20;;;;;;5073941;28;20440;-71
2023/03/25 11:14:24;;;;;;;1.90;0.50;;;29.00;18.50;;;;;;5073610;28;20432;-71
2023/03/25 11:16:55;;;;;;;4.60;1.23;;;28.70;19.00;;;;;;5073396;28;20444;-71
2023/03/25 11:19:27;;;;;;;2.50;1.20;;;30.00;18.90;;;;;;5073388;28;20903;-72
2023/03/25 11:22:00;;;;;;;12.13;9.50;;;30.40;18.20;;;;;;5073169;28;20486;-71
2023/03/25 11:24:32;;;;;;;2.03;0.60;;;30.90;17.30;;;;;;5073527;28;20447;-72
2023/03/25 11:27:00;;;;;;;1.60;0.53;;;30.40;17.30;;;;;;5073592;28;20826;-72
2023/03/25 11:29:29;;;;;;;3.30;0.60;;;28.80;17.60;;;;;;5073557;28;20457;-72
2023/03/25 11:32:04;;;;;;;1.97;0.70;;;27.60;18.60;;;;;;5073279;28;20467;-72
2023/03/25 11:34:31;;;;;;;2.83;0.70;;;26.40;20.00;;;;;;5073228;28;20534;-72
2023/03/25 11:37:08;;;;;;;1.87;0.80;;;24.80;21.00;;;;;;5073455;28;20435;-71
2023/03/25 11:39:39;;;;;;;3.70;1.20;;;23.50;22.40;;;;;;5073410;28;20463;-71
2023/03/25 11:42:14;;;;;;;1.60;0.50;;;22.30;23.60;;;;;;5073411;28;20532;-71
2023/03/25 11:44:49;;;;;;;2.40;0.60;;;21.20;24.60;;;;;;5072893;28;20440;-71
2023/03/25 11:47:21;;;;;;;4.00;0.90;;;20.30;25.60;;;;;;5073201;28;20483;-71
2023/03/25 11:49:49;;;;;;;2.77;0.70;;;19.70;26.50;;;;;;5073269;28;20440;-71
2023/03/25 11:52:22;;;;;;;1.67;0.67;;;20.00;27.60;;;;;;5073141;28;21006;-71
2023/03/25 11:54:50;;;;;;;2.03;0.90;;;21.00;27.70;;;;;;5073177;28;20556;-71
2023/03/25 11:57:22;;;;;;;2.13;1.00;;;23.40;25.20;;;;;;5073204;28;20440;-71
2023/03/25 11:59:58;;;;;;;3.43;1.70;;;25.40;24.70;;;;;;5072981;28;20467;-72
2023/03/25 12:02:28;;;;;;;1.97;0.70;;;29.10;21.40;;;;;;5072401;28;20989;-72
2023/03/25 12:05:01;;;;;;;1.60;0.53;;;31.80;19.00;;;;;;5072984;28;20468;-72
2023/03/25 12:07:42;;;;;;;1.70;0.60;;;31.20;17.60;;;;;;5072724;28;20946;-72
2023/03/25 12:10:17;;;;;;;1.60;0.50;;;31.60;17.30;;;;;;5073104;28;20443;-71
2023/03/25 12:12:53;;;;;;;2.10;0.70;;;32.60;16.50;;;;;;5072728;28;20527;-70
2023/03/25 12:15:29;;;;;;;2.03;0.60;;;32.90;16.30;;;;;;5072889;28;20462;-71
2023/03/25 12:18:07;;;;;;;1.67;0.50;;;33.60;15.30;;;;;;5072870;28;20522;-71
2023/03/25 12:20:41;;;;;;;1.60;0.50;;;32.40;15.80;;;;;;5072316;28;20419;-70
2023/03/25 12:23:24;;;;;;;2.20;0.60;;;29.80;17.10;;;;;;5068028;28;20520;-70
2023/03/25 12:25:59;;;;;;;1.97;0.77;;;27.00;20.00;;;;;;5067435;28;20486;-70
2023/03/25 12:28:47;;;;;;;1.63;0.60;;;24.80;22.70;;;;;;5066958;28;20439;-69
2023/03/25 12:31:25;;;;;;;3.07;0.70;;;23.00;24.20;;;;;;5064958;28;20475;-70
2023/03/25 12:34:05;;;;;;;4.90;0.73;;;21.40;26.80;;;;;;5069011;28;20450;-69
2023/03/25 12:36:47;;;;;;;1.60;0.50;;;20.10;28.20;;;;;;5066168;28;20507;-69
2023/03/25 12:39:36;;;;;;;1.57;0.50;;;19.10;30.00;;;;;;5070127;28;20436;-69
2023/03/25 12:42:13;;;;;;;1.90;0.80;;;18.20;32.20;;;;;;5068910;28;20447;-70
2023/03/25 12:44:57;;;;;;;1.80;0.60;;;17.60;34.30;;;;;;5067930;28;20454;-69
2023/03/25 12:47:26;;;;;;;2.10;0.67;;;17.00;33.60;;;;;;5069322;28;20862;-69
2023/03/25 12:50:21;;;;;;;1.97;0.73;;;16.50;35.20;;;;;;5070464;28;20443;-68
2023/03/25 12:52:58;;;;;;;8.20;0.90;;;15.90;35.80;;;;;;5064962;28;20440;-69
2023/03/25 12:55:44;;;;;;;1.67;0.63;;;15.20;37.90;;;;;;5066333;28;20435;-69
2023/03/25 12:58:25;;;;;;;3.60;0.70;;;14.60;39.60;;;;;;5069245;28;20856;-72
2023/03/25 13:01:01;;;;;;;1.80;0.70;;;14.10;41.20;;;;;;5069695;28;20432;-69
2023/03/25 13:03:55;;;;;;;1.60;0.70;;;13.90;43.40;;;;;;5069673;28;20844;-69
2023/03/25 13:06:29;;;;;;;2.30;1.00;;;13.90;44.80;;;;;;5062397;28;20815;-69
2023/03/25 13:09:01;;;;;;;2.30;0.70;;;14.00;44.40;;;;;;5068938;28;20475;-69
2023/03/25 13:11:38;;;;;;;1.70;0.67;;;14.50;47.30;;;;;;5069076;28;20452;-69
2023/03/25 13:14:08;;;;;;;2.10;0.80;;;17.50;44.80;;;;;;5070877;28;20530;-70